Time;durP1;ratioP1;P1;durP2;ratioP2;P2;SDS_P1;SDS_P2;PMS_P1;PMS_P2;Temp;Humidity;BMP_temperature;BMP_pressure;BME280_temperature;BME280_humidity;BME280_pressure;Samples;Min_cycle;Max_cycle;Signal;HPM_P1;HPM_P2
2023/12/02 00:02:13;;;;;;;;;34.75;25.25;;;;;3.72;56.05;100512.69;5099937;27;45396;-52
2023/12/02 00:04:39;;;;;;;;;35.00;26.50;;;;;3.75;55.51;100524.78;5099782;27;45441;-53
2023/12/02 00:07:04;;;;;;;;;27.75;22.25;;;;;3.75;54.99;100517.72;5099686;27;46201;-52
2023/12/02 00:09:29;;;;;;;;;33.75;24.25;;;;;3.77;55.73;100520.25;5098356;27;45422;-45
2023/12/02 00:11:55;;;;;;;;;31.25;28.50;;;;;3.74;54.86;100517.81;5099477;27;45335;-52
2023/12/02 00:14:20;;;;;;;;;37.25;27.50;;;;;3.75;55.81;100523.00;5099683;27;45451;-54
2023/12/02 00:16:45;;;;;;;;;36.75;27.00;;;;;3.77;55.32;100524.66;5099492;27;46598;-46
2023/12/02 00:19:11;;;;;;;;;31.50;23.25;;;;;3.77;55.89;100514.16;5081598;27;45966;-47
2023/12/02 00:21:36;;;;;;;;;35.50;28.25;;;;;3.78;55.18;100521.91;5099786;27;45181;-47
2023/12/02 00:24:02;;;;;;;;;33.00;26.25;;;;;3.78;55.90;100518.44;5099793;27;45330;-47
2023/12/02 00:26:27;;;;;;;;;33.00;26.25;;;;;3.79;55.11;100520.97;5099063;27;47152;-48
2023/12/02 00:28:53;;;;;;;;;45.25;30.75;;;;;3.77;55.98;100522.88;5099066;27;45314;-47
2023/12/02 00:31:18;;;;;;;;;42.75;28.75;;;;;3.79;55.70;100523.59;5099209;27;45280;-53
2023/12/02 00:33:43;;;;;;;;;31.75;26.00;;;;;3.81;55.68;100528.78;5099570;27;45442;-48
2023/12/02 00:36:09;;;;;;;;;32.00;27.00;;;;;3.77;55.92;100514.97;5099171;27;46932;-51
2023/12/02 00:38:35;;;;;;;;;34.75;30.00;;;;;3.79;55.82;100522.75;5099063;27;45412;-46
2023/12/02 00:41:00;;;;;;;;;46.25;31.00;;;;;3.81;55.21;100532.22;5080890;27;45304;-48
2023/12/02 00:43:25;;;;;;;;;45.25;31.00;;;;;3.82;55.55;100527.81;5099288;27;45410;-46
2023/12/02 00:45:50;;;;;;;;;34.75;26.50;;;;;3.67;55.53;100501.66;5098959;27;46099;-50
2023/12/02 00:48:16;;;;;;;;;39.25;27.50;;;;;3.83;55.38;100527.69;5099060;27;48335;-48
2023/12/02 00:50:41;;;;;;;;;33.75;25.00;;;;;3.82;55.44;100522.53;5098979;27;45530;-49
2023/12/02 00:53:06;;;;;;;;;51.25;37.50;;;;;3.81;55.25;100520.88;5080894;27;45394;-47
2023/12/02 00:55:32;;;;;;;;;42.50;30.00;;;;;3.80;55.07;100519.19;5098772;27;45391;-48
2023/12/02 00:57:57;;;;;;;;;37.50;31.25;;;;;3.81;55.85;100526.97;5098820;27;45473;-47
2023/12/02 01:00:23;;;;;;;;;39.00;31.75;;;;;3.82;55.16;100520.75;5097982;27;45272;-46
2023/12/02 01:02:48;;;;;;;;;47.00;26.00;;;;;3.74;55.99;100504.66;5098977;27;45480;-46
2023/12/02 01:05:14;;;;;;;;;38.50;29.00;;;;;3.74;54.96;100510.78;5098739;27;46222;-48
2023/12/02 01:07:39;;;;;;;;;48.75;35.00;;;;;3.74;55.33;100523.09;5098564;27;45267;-49
2023/12/02 01:10:05;;;;;;;;;39.75;26.50;;;;;3.75;56.31;100523.00;5097235;27;45504;-51
2023/12/02 01:12:31;;;;;;;;;41.50;26.75;;;;;3.74;56.00;100521.28;5098852;27;45325;-49
2023/12/02 01:14:56;;;;;;;;;35.00;18.25;;;;;3.75;56.90;100523.00;5098450;27;46206;-50
2023/12/02 01:17:21;;;;;;;;;33.50;26.00;;;;;3.77;55.72;100536.03;5098540;27;45394;-46
2023/12/02 01:19:47;;;;;;;;;33.25;29.25;;;;;3.69;55.78;100522.56;5098323;27;45803;-48
2023/12/02 01:22:12;;;;;;;;;24.25;20.25;;;;;3.74;56.18;100536.25;5098736;27;45333;-48
2023/12/02 01:24:37;;;;;;;;;31.00;26.75;;;;;3.74;55.17;100544.97;5098389;27;46916;-47
2023/12/02 01:27:03;;;;;;;;;29.75;22.50;;;;;3.73;55.53;100542.47;5098017;27;45387;-49
2023/12/02 01:29:28;;;;;;;;;38.25;20.00;;;;;3.71;55.41;100552.25;5098243;27;45415;-45
2023/12/02 01:31:54;;;;;;;;;32.75;22.00;;;;;3.70;54.99;100550.56;5098212;27;45581;-50
2023/12/02 01:34:19;;;;;;;;;22.50;15.00;;;;;3.60;55.94;100547.75;5097767;27;47185;-48
2023/12/02 01:36:47;;;;;;;;;28.25;20.25;;;;;3.63;54.91;100560.69;5098162;27;45360;-47
2023/12/02 01:39:12;;;;;;;;;30.25;17.25;;;;;3.59;54.69;100561.84;5098024;27;45347;-49
2023/12/02 01:41:41;;;;;;;;;28.00;19.75;;;;;3.55;55.55;100563.00;5098107;27;45470;-46
2023/12/02 01:44:06;;;;;;;;;41.00;28.00;;;;;3.52;55.46;100563.22;5097812;27;46522;-48
2023/12/02 01:46:31;;;;;;;;;27.75;26.25;;;;;3.50;54.34;100565.13;5097775;27;45524;-47
2023/12/02 01:48:59;;;;;;;;;37.75;25.75;;;;;3.49;55.39;100569.50;5098129;27;45784;-48
2023/12/02 01:51:26;;;;;;;;;34.25;21.75;;;;;3.50;55.14;100573.00;5098073;27;45165;-46
2023/12/02 01:53:51;;;;;;;;;36.75;24.50;;;;;3.46;55.21;100579.41;5097870;27;45444;-47
2023/12/02 01:56:18;;;;;;;;;28.50;24.00;;;;;3.49;55.07;100581.81;5097910;27;45636;-48
2023/12/02 01:58:43;;;;;;;;;25.00;18.50;;;;;3.50;55.89;100591.41;5098149;27;45317;-48
2023/12/02 02:01:09;;;;;;;;;29.75;25.25;;;;;3.39;55.25;100576.34;5097950;27;45446;-47
2023/12/02 02:03:35;;;;;;;;;30.00;23.75;;;;;3.54;55.70;100592.00;5097698;27;46360;-46
2023/12/02 02:06:00;;;;;;;;;30.50;25.50;;;;;3.53;55.55;100593.81;5097507;27;45452;-46
2023/12/02 02:08:25;;;;;;;;;30.75;23.75;;;;;3.52;55.91;100594.75;5098037;27;45395;-49
2023/12/02 02:10:58;;;;;;;;;29.25;26.00;;;;;3.54;55.29;100605.16;5080042;27;45439;-48
2023/12/02 02:13:24;;;;;;;;;30.00;24.00;;;;;3.56;55.50;100611.19;5097693;27;46208;-46
2023/12/02 02:15:49;;;;;;;;;16.00;12.00;;;;;3.54;56.13;100613.06;5097939;27;45375;-49
2023/12/02 02:18:14;;;;;;;;;32.50;30.00;;;;;3.55;56.35;100614.75;5097777;27;45285;-49
2023/12/02 02:20:40;;;;;;;;;39.00;28.75;;;;;3.57;56.51;100611.06;5097159;27;45348;-48
2023/12/02 02:23:05;;;;;;;;;37.00;32.75;;;;;3.59;56.05;100624.13;5097588;27;45850;-48
2023/12/02 02:25:30;;;;;;;;;30.50;22.00;;;;;3.59;57.09;100632.84;5097460;27;45342;-46
2023/12/02 02:27:56;;;;;;;;;28.50;23.75;;;;;3.54;56.98;100634.97;5097426;27;45643;-49
2023/12/02 02:30:23;;;;;;;;;26.50;18.00;;;;;3.50;57.17;100633.50;5079201;27;45466;-48
2023/12/02 02:32:48;;;;;;;;;32.00;23.50;;;;;3.43;56.61;100635.69;5096504;27;46122;-47
2023/12/02 02:35:14;;;;;;;;;35.75;28.75;;;;;3.43;56.72;100642.72;5097074;27;45314;-47
2023/12/02 02:37:39;;;;;;;;;31.50;21.50;;;;;3.37;56.58;100641.38;5097071;27;45394;-48
2023/12/02 02:40:05;;;;;;;;;32.00;23.50;;;;;3.29;56.56;100641.03;5097425;27;45428;-48
2023/12/02 02:42:31;;;;;;;;;42.50;26.75;;;;;3.23;55.17;100644.91;5096938;27;46357;-47
2023/12/02 02:44:56;;;;;;;;;29.50;26.00;;;;;3.19;56.23;100653.94;5097214;27;45412;-47
2023/12/02 02:47:21;;;;;;;;;34.50;28.00;;;;;3.13;55.32;100643.84;5097048;27;45642;-47
2023/12/02 02:49:47;;;;;;;;;29.50;25.00;;;;;3.17;56.39;100652.38;5097212;27;45370;-47
2023/12/02 02:52:13;;;;;;;;;39.50;26.25;;;;;3.17;56.59;100653.19;5096854;27;45807;-47
2023/12/02 02:54:38;;;;;;;;;28.75;21.00;;;;;3.17;55.56;100665.50;5096997;27;45367;-47
2023/12/02 02:57:05;;;;;;;;;25.25;23.25;;;;;3.17;55.78;100658.47;5097176;27;45367;-49
2023/12/02 02:59:30;;;;;;;;;36.25;25.75;;;;;3.16;56.17;100658.53;5097072;27;45394;-48
2023/12/02 03:01:56;;;;;;;;;29.00;21.25;;;;;3.18;56.06;100659.28;5096753;27;47261;-49
2023/12/02 03:04:21;;;;;;;;;29.25;20.25;;;;;3.19;56.20;100664.44;5096909;27;45440;-48
2023/12/02 03:06:46;;;;;;;;;31.00;20.00;;;;;3.19;56.25;100668.84;5097296;27;45373;-47
2023/12/02 03:09:12;;;;;;;;;36.75;22.50;;;;;3.19;57.02;100666.22;5097273;27;45343;-49
2023/12/02 03:11:37;;;;;;;;;42.50;30.25;;;;;3.19;56.67;100663.59;5096576;27;45809;-46
2023/12/02 03:14:03;;;;;;;;;37.75;29.75;;;;;3.18;57.34;100664.56;5096901;27;45263;-47
2023/12/02 03:16:28;;;;;;;;;37.25;27.75;;;;;3.17;56.73;100663.72;5096717;27;45331;-45
2023/12/02 03:18:53;;;;;;;;;28.50;21.00;;;;;3.10;57.15;100653.69;5097041;27;45432;-47
2023/12/02 03:21:19;;;;;;;;;49.75;33.50;;;;;3.09;57.33;100662.53;5078273;27;46366;-47
2023/12/02 03:23:45;;;;;;;;;29.50;20.50;;;;;3.05;57.25;100661.88;5096659;27;45320;-49
2023/12/02 03:26:12;;;;;;;;;34.75;25.00;;;;;3.04;57.21;100664.63;5096627;27;45401;-47
2023/12/02 03:28:37;;;;;;;;;45.75;29.00;;;;;3.04;57.05;100670.72;5096835;27;45383;-48
2023/12/02 03:31:03;;;;;;;;;38.50;30.75;;;;;3.06;58.39;100671.44;5095949;27;45950;-47
2023/12/02 03:33:29;;;;;;;;;40.25;32.25;;;;;3.06;58.13;100675.88;5096540;27;45429;-52
2023/12/02 03:35:54;;;;;;;;;37.50;27.75;;;;;3.01;58.17;100665.66;5096537;27;45348;-51
2023/12/02 03:38:20;;;;;;;;;47.00;30.25;;;;;2.92;58.24;100659.22;5096657;27;45463;-50
2023/12/02 03:40:45;;;;;;;;;35.00;22.50;;;;;3.02;59.00;100675.22;5096537;27;45561;-47
2023/12/02 03:43:11;;;;;;;;;40.00;31.00;;;;;3.02;59.30;100666.50;5097401;27;45519;-53
2023/12/02 03:45:36;;;;;;;;;42.75;33.00;;;;;3.04;58.94;100678.59;5100034;27;45296;-50
2023/12/02 03:48:01;;;;;;;;;36.75;27.00;;;;;3.06;59.11;100678.50;5099904;27;45516;-51
2023/12/02 03:50:27;;;;;;;;;46.25;33.00;;;;;3.09;59.51;100676.50;5099855;27;45351;-54
2023/12/02 03:52:53;;;;;;;;;39.50;29.75;;;;;3.09;59.40;100681.78;5099910;27;45219;-49
2023/12/02 03:55:19;;;;;;;;;44.50;31.75;;;;;3.08;59.28;100687.97;5099901;27;45382;-49
2023/12/02 03:57:44;;;;;;;;;37.50;28.25;;;;;3.05;58.35;100693.44;5100042;27;45362;-47
2023/12/02 04:00:13;;;;;;;;;40.75;33.75;;;;;3.05;58.27;100693.44;5099565;27;46344;-51
2023/12/02 04:02:39;;;;;;;;;34.00;30.50;;;;;2.94;58.39;100695.91;5099471;27;45484;-47
2023/12/02 04:05:09;;;;;;;;;27.25;18.50;;;;;2.94;59.24;100703.78;5099738;27;45385;-47
2023/12/02 04:07:35;;;;;;;;;32.25;27.25;;;;;2.84;58.42;100710.56;5099808;27;45413;-48
2023/12/02 04:10:00;;;;;;;;;50.00;31.50;;;;;2.77;58.07;100706.66;5099644;27;46270;-45
2023/12/02 04:12:25;;;;;;;;;38.00;30.00;;;;;2.66;58.21;100710.81;5099547;27;45407;-48
2023/12/02 04:14:51;;;;;;;;;45.50;29.75;;;;;2.62;58.73;100714.56;5098262;27;45309;-48
2023/12/02 04:17:17;;;;;;;;;44.50;31.50;;;;;2.51;58.69;100706.50;5099569;27;46123;-47
2023/12/02 04:19:42;;;;;;;;;36.00;26.25;;;;;2.49;59.34;100711.03;5099431;27;47219;-47
2023/12/02 04:22:08;;;;;;;;;45.25;34.50;;;;;2.48;59.70;100723.28;5099447;27;45263;-47
2023/12/02 04:24:33;;;;;;;;;39.00;32.75;;;;;2.29;59.61;100706.16;5099357;27;46917;-48
2023/12/02 04:26:58;;;;;;;;;46.25;31.50;;;;;2.36;59.82;100734.56;5099435;27;45845;-46
2023/12/02 04:29:25;;;;;;;;;47.00;43.00;;;;;2.27;60.19;100722.00;5099231;27;46134;-51
2023/12/02 04:31:51;;;;;;;;;37.25;30.50;;;;;2.27;60.42;100732.50;5099118;27;45432;-49
2023/12/02 04:34:16;;;;;;;;;36.00;27.75;;;;;2.23;60.59;100736.22;5099710;27;45436;-51
2023/12/02 04:36:43;;;;;;;;;41.00;32.00;;;;;2.24;61.45;100741.41;5100145;27;45442;-48
2023/12/02 04:39:11;;;;;;;;;54.75;39.25;;;;;2.23;61.31;100747.59;5099083;27;47064;-56
2023/12/02 04:41:37;;;;;;;;;55.50;38.50;;;;;2.14;61.32;100736.81;5099293;27;45467;-52
2023/12/02 04:44:02;;;;;;;;;47.25;31.50;;;;;2.20;61.69;100760.91;5099231;27;45409;-44
2023/12/02 04:46:27;;;;;;;;;43.50;35.75;;;;;2.14;61.73;100749.91;5099237;27;45388;-46
2023/12/02 04:48:53;;;;;;;;;52.75;37.25;;;;;2.15;61.94;100762.09;5099115;27;46142;-45
2023/12/02 04:51:18;;;;;;;;;33.25;33.25;;;;;2.08;62.02;100759.03;5098824;27;45383;-52
2023/12/02 04:53:43;;;;;;;;;49.50;29.00;;;;;2.13;61.88;100770.06;5099059;27;45247;-50
2023/12/02 04:56:09;;;;;;;;;43.25;30.00;;;;;2.12;62.21;100773.66;5098555;27;45330;-47
2023/12/02 04:58:35;;;;;;;;;39.75;28.50;;;;;2.12;62.36;100781.53;5098763;27;45466;-46
2023/12/02 05:01:00;;;;;;;;;44.50;32.00;;;;;2.12;62.48;100781.53;5079409;27;45395;-48
2023/12/02 05:03:25;;;;;;;;;46.25;29.50;;;;;2.12;62.60;100794.63;5098547;27;45374;-47
2023/12/02 05:05:51;;;;;;;;;35.75;27.25;;;;;1.95;62.97;100769.41;5099107;27;45493;-51
2023/12/02 05:08:17;;;;;;;;;45.00;35.75;;;;;2.12;62.77;100799.03;5098176;27;51062;-49
2023/12/02 05:10:42;;;;;;;;;43.50;34.00;;;;;2.09;62.92;100799.22;5098414;27;45656;-51
2023/12/02 05:13:07;;;;;;;;;37.25;28.50;;;;;2.12;63.02;100809.53;5098615;27;45387;-53
2023/12/02 05:15:33;;;;;;;;;33.50;27.25;;;;;2.12;62.96;100809.53;5098871;27;45232;-52
2023/12/02 05:17:58;;;;;;;;;41.25;33.50;;;;;2.12;63.32;100814.78;5080117;27;45322;-48
2023/12/02 05:20:23;;;;;;;;;44.50;34.25;;;;;2.12;63.07;100823.50;5098150;27;50863;-47
2023/12/02 05:22:49;;;;;;;;;48.75;32.25;;;;;2.06;63.07;100820.38;5098587;27;45303;-49
2023/12/02 05:25:15;;;;;;;;;36.00;26.50;;;;;2.06;63.11;100826.47;5098848;27;45322;-51
2023/12/02 05:27:41;;;;;;;;;38.75;31.50;;;;;2.02;63.32;100826.75;5098075;27;47574;-49
2023/12/02 05:30:07;;;;;;;;;38.75;31.00;;;;;2.04;63.24;100833.59;5098028;27;45443;-50
2023/12/02 05:32:32;;;;;;;;;52.25;31.75;;;;;2.02;63.04;100842.50;5098308;27;45308;-51
2023/12/02 05:34:58;;;;;;;;;42.75;29.00;;;;;2.00;63.81;100837.34;5098501;27;45379;-51
2023/12/02 05:37:23;;;;;;;;;40.25;30.00;;;;;1.99;63.51;100841.75;5098214;27;45291;-47
2023/12/02 05:39:49;;;;;;;;;50.50;32.25;;;;;2.00;63.44;100839.97;5098650;27;45319;-51
2023/12/02 05:42:14;;;;;;;;;44.50;35.50;;;;;1.95;63.56;100850.72;5098801;27;45425;-46
2023/12/02 05:44:43;;;;;;;;;37.00;29.00;;;;;1.96;63.44;100855.03;5098672;27;45494;-48
2023/12/02 05:47:08;;;;;;;;;41.50;30.50;;;;;1.97;63.91;100869.00;5097841;27;46194;-48
2023/12/02 05:49:33;;;;;;;;;42.75;28.00;;;;;1.96;63.69;100864.69;5097955;27;45227;-48
2023/12/02 05:51:59;;;;;;;;;40.00;26.00;;;;;1.94;63.82;100874.44;5097894;27;45264;-46
2023/12/02 05:54:24;;;;;;;;;35.50;27.75;;;;;1.90;63.63;100871.13;5098547;27;45379;-46
2023/12/02 05:56:52;;;;;;;;;42.75;30.00;;;;;1.87;64.31;100873.94;5097992;27;46244;-47
2023/12/02 05:59:21;;;;;;;;;37.25;27.75;;;;;1.85;63.90;100880.19;5098231;27;45435;-46
2023/12/02 06:01:46;;;;;;;;;51.25;37.00;;;;;1.83;64.03;100884.69;5097895;27;45327;-46
2023/12/02 06:04:11;;;;;;;;;45.00;36.50;;;;;1.84;64.11;100891.63;5098086;27;45585;-47
2023/12/02 06:06:37;;;;;;;;;42.00;32.50;;;;;1.79;64.08;100889.25;5096743;27;46215;-49
2023/12/02 06:09:03;;;;;;;;;45.50;39.50;;;;;1.81;64.34;100904.91;5096550;27;45429;-47
2023/12/02 06:11:28;;;;;;;;;37.75;26.50;;;;;1.79;64.41;100901.53;5096754;27;45445;-46
2023/12/02 06:13:53;;;;;;;;;45.75;32.00;;;;;1.76;64.45;100905.16;5098091;27;45446;-49
2023/12/02 06:16:19;;;;;;;;;39.25;30.50;;;;;1.76;64.36;100913.03;5097507;27;46481;-48
2023/12/02 06:18:44;;;;;;;;;41.00;32.50;;;;;1.75;64.51;100916.59;5097550;27;45228;-48
2023/12/02 06:21:11;;;;;;;;;31.75;24.50;;;;;1.73;64.75;100923.72;5097602;27;45552;-49
2023/12/02 06:23:37;;;;;;;;;46.00;31.00;;;;;1.76;64.77;100928.75;5097725;27;45420;-48
2023/12/02 06:26:02;;;;;;;;;55.50;43.75;;;;;1.74;64.60;100931.50;5097441;27;47001;-46
2023/12/02 06:28:28;;;;;;;;;42.50;28.75;;;;;1.77;64.72;100934.84;5096887;27;45369;-47
2023/12/02 06:30:53;;;;;;;;;46.25;30.50;;;;;1.77;64.61;100940.09;5097387;27;45348;-47
2023/12/02 06:33:18;;;;;;;;;32.25;26.75;;;;;1.78;64.52;100940.03;5097312;27;45439;-50
2023/12/02 06:35:44;;;;;;;;;47.50;28.75;;;;;1.77;64.60;100940.09;5096936;27;48501;-47
2023/12/02 06:38:09;;;;;;;;;39.25;30.25;;;;;1.78;64.62;100947.06;5097181;27;46993;-47
2023/12/02 06:40:34;;;;;;;;;48.50;36.00;;;;;1.73;64.93;100944.69;5097094;27;45524;-47
2023/12/02 06:43:00;;;;;;;;;57.50;30.75;;;;;1.74;64.74;100955.09;5097341;27;45429;-47
2023/12/02 06:45:25;;;;;;;;;53.50;35.75;;;;;1.77;64.63;100958.47;5097066;27;46024;-47
2023/12/02 06:47:50;;;;;;;;;41.50;28.00;;;;;1.78;64.82;100957.56;5096922;27;45358;-48
2023/12/02 06:50:16;;;;;;;;;51.00;32.25;;;;;1.74;64.54;100955.09;5097278;27;45382;-48
2023/12/02 06:52:41;;;;;;;;;44.75;34.75;;;;;1.69;65.48;100951.88;5097399;27;45256;-52
2023/12/02 06:55:09;;;;;;;;;52.00;33.00;;;;;1.66;64.66;100953.81;5096785;27;46102;-47
2023/12/02 06:57:34;;;;;;;;;63.25;37.25;;;;;1.50;64.90;100940.69;5097108;27;45377;-49
2023/12/02 06:59:59;;;;;;;;;51.25;38.00;;;;;1.62;65.04;100970.66;5097020;27;45342;-48
2023/12/02 07:02:24;;;;;;;;;53.50;33.75;;;;;1.59;65.15;100969.03;5097187;27;45322;-47
2023/12/02 07:04:50;;;;;;;;;64.50;39.00;;;;;1.58;65.08;100967.34;5096826;27;46055;-48
2023/12/02 07:07:15;;;;;;;;;48.00;36.50;;;;;1.61;65.11;100976.84;5096903;27;46757;-48
2023/12/02 07:09:40;;;;;;;;;41.50;30.75;;;;;1.59;64.90;100978.69;5097006;27;45378;-49
2023/12/02 07:12:06;;;;;;;;;39.75;30.25;;;;;1.54;65.12;100986.78;5078679;27;45494;-48
2023/12/02 07:14:31;;;;;;;;;40.50;29.00;;;;;1.57;65.30;100988.41;5096747;27;46314;-46
2023/12/02 07:16:57;;;;;;;;;42.75;34.00;;;;;1.54;65.29;100994.66;5096739;27;45233;-48
2023/12/02 07:19:22;;;;;;;;;46.75;37.75;;;;;1.57;65.32;100996.28;5098518;27;45390;-46
2023/12/02 07:21:47;;;;;;;;;54.50;35.25;;;;;1.58;65.03;101004.06;5100419;27;45291;-48
2023/12/02 07:24:13;;;;;;;;;47.25;30.50;;;;;1.54;64.96;100999.91;5100133;27;51115;-46
2023/12/02 07:26:39;;;;;;;;;54.00;39.25;;;;;1.56;65.43;101008.56;5100399;27;45388;-45
2023/12/02 07:29:04;;;;;;;;;46.50;30.25;;;;;1.54;65.10;101005.16;5079930;27;45298;-48
2023/12/02 07:31:30;;;;;;;;;46.50;26.50;;;;;1.57;65.21;101015.47;5080138;27;45367;-46
2023/12/02 07:33:55;;;;;;;;;41.75;35.25;;;;;1.56;65.20;101011.16;5079473;28;48974;-46
2023/12/02 07:36:20;;;;;;;;;51.75;39.50;;;;;1.60;65.13;101023.19;5079873;27;45366;-45
2023/12/02 07:38:46;;;;;;;;;49.25;36.25;;;;;1.60;65.06;101022.31;5080285;27;45377;-47
2023/12/02 07:41:11;;;;;;;;;51.00;31.75;;;;;1.61;64.93;101030.13;5079968;27;45383;-47
2023/12/02 07:43:36;;;;;;;;;37.25;32.00;;;;;1.62;65.10;101030.97;5079441;28;46284;-46
2023/12/02 07:46:02;;;;;;;;;44.75;36.75;;;;;1.65;65.25;101030.81;5079272;27;49308;-48
2023/12/02 07:48:27;;;;;;;;;48.50;39.25;;;;;1.66;64.56;101033.34;5079563;27;45409;-47
2023/12/02 07:50:53;;;;;;;;;58.00;36.75;;;;;1.68;65.03;101031.47;5079824;28;45395;-46
2023/12/02 07:53:19;;;;;;;;;56.00;42.00;;;;;1.74;64.42;101038.16;5079613;27;45406;-47
2023/12/02 07:55:44;;;;;;;;;60.75;46.25;;;;;1.73;64.84;101034.72;5078014;28;45435;-49
2023/12/02 07:58:09;;;;;;;;;64.25;45.00;;;;;1.70;64.58;101034.88;5079518;28;45434;-47
2023/12/02 08:00:35;;;;;;;;;40.75;28.25;;;;;1.83;64.83;101044.69;5079795;27;45571;-47
2023/12/02 08:03:00;;;;;;;;;43.50;31.50;;;;;1.73;64.67;101028.63;5079468;27;45376;-49
2023/12/02 08:05:25;;;;;;;;;47.25;34.00;;;;;1.92;64.28;101062.56;5079668;27;45356;-48
2023/12/02 08:07:51;;;;;;;;;58.25;38.50;;;;;1.93;64.16;101056.38;5079759;28;45235;-49
2023/12/02 08:10:17;;;;;;;;;50.75;38.75;;;;;1.95;64.19;101060.63;5078127;27;45244;-47
2023/12/02 08:12:42;;;;;;;;;40.50;35.25;;;;;2.00;64.05;101069.06;5078922;27;45908;-46
2023/12/02 08:15:08;;;;;;;;;50.75;33.75;;;;;2.09;65.01;101072.13;5079385;27;45413;-46
2023/12/02 08:17:34;;;;;;;;;50.25;40.25;;;;;2.07;64.17;101066.13;5079159;27;45466;-45
2023/12/02 08:20:00;;;;;;;;;48.00;35.75;;;;;2.13;63.63;101074.50;5079380;27;45494;-47
2023/12/02 08:22:25;;;;;;;;;44.00;35.25;;;;;2.15;64.04;101072.66;5078717;28;45317;-44
2023/12/02 08:24:51;;;;;;;;;44.00;36.75;;;;;2.19;63.83;101084.66;5077485;28;48610;-47
2023/12/02 08:27:17;;;;;;;;;54.75;30.00;;;;;2.26;63.44;101090.41;5084274;27;45508;-45
2023/12/02 08:29:42;;;;;;;;;46.50;40.25;;;;;2.19;63.89;101079.41;5098623;27;45295;-49
2023/12/02 08:32:08;;;;;;;;;45.75;35.25;;;;;2.29;63.23;101105.16;5099123;27;47210;-46
2023/12/02 08:34:33;;;;;;;;;47.00;37.00;;;;;2.27;63.23;101099.13;5099162;27;45421;-46
2023/12/02 08:36:58;;;;;;;;;50.75;37.00;;;;;2.25;63.09;101107.94;5099173;27;45547;-45
2023/12/02 08:39:24;;;;;;;;;44.25;38.00;;;;;2.22;63.67;101110.72;5099554;27;45286;-47
2023/12/02 08:41:50;;;;;;;;;42.50;31.50;;;;;2.20;63.91;101104.72;5080614;27;46217;-47
2023/12/02 08:44:15;;;;;;;;;54.25;40.00;;;;;2.17;63.91;101112.75;5099215;27;45350;-47
2023/12/02 08:46:41;;;;;;;;;51.25;38.50;;;;;2.15;63.79;101104.16;5099110;27;45387;-47
2023/12/02 08:49:06;;;;;;;;;50.50;36.75;;;;;2.11;63.93;101114.91;5099225;27;45207;-46
2023/12/02 08:51:31;;;;;;;;;49.50;39.25;;;;;2.15;63.89;101119.00;5098845;27;46029;-47
2023/12/02 08:54:01;;;;;;;;;85.25;57.75;;;;;2.15;63.84;101119.88;5080817;27;45340;-47
2023/12/02 08:56:28;;;;;;;;;53.50;38.00;;;;;2.19;63.98;101131.03;5098989;27;45393;-53
2023/12/02 08:58:54;;;;;;;;;55.25;42.00;;;;;2.19;63.79;101128.41;5099080;27;45251;-51
2023/12/02 09:01:19;;;;;;;;;49.50;34.50;;;;;2.19;63.67;101128.41;5098840;27;45361;-46
2023/12/02 09:03:45;;;;;;;;;46.75;36.00;;;;;2.24;63.58;101132.50;5098758;27;45265;-46
2023/12/02 09:06:10;;;;;;;;;51.25;40.50;;;;;2.32;63.71;101120.72;5098874;27;45291;-46
2023/12/02 09:08:35;;;;;;;;;49.00;38.75;;;;;2.64;62.93;101153.06;5098974;27;45359;-46
2023/12/02 09:11:02;;;;;;;;;65.50;44.00;;;;;3.20;61.85;101147.22;5098478;27;45327;-46
2023/12/02 09:13:27;;;;;;;;;62.25;45.00;;;;;4.02;60.60;101156.34;5098496;27;45388;-46
2023/12/02 09:15:53;;;;;;;;;49.50;34.00;;;;;4.36;58.96;101160.34;5098780;27;45365;-45
2023/12/02 09:18:34;;;;;;;;;47.25;33.00;;;;;4.86;58.43;101164.19;5098690;27;45347;-47
2023/12/02 09:21:00;;;;;;;;;57.25;40.25;;;;;5.52;56.53;101162.47;5098160;27;47505;-45
2023/12/02 09:23:26;;;;;;;;;64.00;43.00;;;;;6.28;55.51;101156.31;5098603;27;45378;-46
2023/12/02 09:25:53;;;;;;;;;63.00;42.50;;;;;7.35;53.02;101168.78;5080467;27;45263;-45
2023/12/02 09:28:26;;;;;;;;;44.75;37.00;;;;;8.21;50.79;101155.03;5098301;27;45334;-48
2023/12/02 09:30:58;;;;;;;;;59.25;44.25;;;;;8.62;48.82;101161.53;5098208;27;46055;-49
2023/12/02 09:33:25;;;;;;;;;45.25;36.50;;;;;8.92;49.01;101163.50;5098262;27;45248;-49
2023/12/02 09:35:54;;;;;;;;;53.50;38.25;;;;;8.86;49.23;101159.56;5098135;27;45389;-50
2023/12/02 09:38:20;;;;;;;;;50.00;40.00;;;;;9.20;49.01;101162.91;5098760;27;45498;-45
2023/12/02 09:40:51;;;;;;;;;52.50;43.25;;;;;9.78;46.77;101169.63;5097823;27;45402;-53
2023/12/02 09:43:37;;;;;;;;;55.50;35.25;;;;;10.26;45.94;101164.53;5098025;27;45315;-46
2023/12/02 09:46:10;;;;;;;;;58.50;38.75;;;;;10.43;45.50;101169.22;5098185;27;45463;-49
2023/12/02 09:48:52;;;;;;;;;60.75;42.75;;;;;10.65;44.80;101152.19;5098337;27;45290;-52
2023/12/02 09:51:39;;;;;;;;;57.75;41.00;;;;;11.88;43.59;101167.56;5097989;27;46340;-45
2023/12/02 09:54:21;;;;;;;;;55.00;39.25;;;;;12.23;42.42;101173.06;5097367;27;45340;-53
2023/12/02 09:57:08;;;;;;;;;59.00;41.25;;;;;11.61;42.32;101171.81;5098022;27;45307;-46
2023/12/02 09:59:39;;;;;;;;;58.50;40.25;;;;;10.77;43.30;101173.38;5097680;27;45578;-51
2023/12/02 10:02:14;;;;;;;;;54.50;40.75;;;;;10.23;44.47;101188.69;5097322;27;45490;-47
2023/12/02 10:05:07;;;;;;;;;54.00;39.50;;;;;10.37;44.33;101188.38;5097579;27;45735;-44
2023/12/02 10:07:54;;;;;;;;;52.00;33.25;;;;;11.44;43.96;101188.53;5097862;27;45363;-51
2023/12/02 10:10:25;;;;;;;;;61.00;42.50;;;;;12.31;41.32;101188.34;5097985;27;45278;-47
2023/12/02 10:13:25;;;;;;;;;58.25;40.50;;;;;13.16;41.18;101186.28;5078817;27;48248;-48
2023/12/02 10:15:57;;;;;;;;;53.25;40.25;;;;;13.47;39.42;101184.91;5079242;27;45494;-49
2023/12/02 10:18:29;;;;;;;;;55.75;38.75;;;;;13.38;38.56;101195.69;5097694;27;45341;-48
2023/12/02 10:20:59;;;;;;;;;57.75;40.00;;;;;12.99;38.49;101187.97;5097605;27;45382;-47
2023/12/02 10:23:32;;;;;;;;;55.75;38.50;;;;;12.14;40.85;101187.28;5097096;27;47098;-45
2023/12/02 10:26:23;;;;;;;;;56.25;39.25;;;;;11.32;42.05;101194.97;5097543;27;45369;-53
2023/12/02 10:29:13;;;;;;;;;60.25;43.25;;;;;10.65;42.78;101188.59;5097473;27;45275;-49
2023/12/02 10:31:48;;;;;;;;;54.75;40.25;;;;;10.32;43.05;101190.59;5086807;27;45615;-49
2023/12/02 10:34:32;;;;;;;;;44.75;38.00;;;;;11.05;43.52;101196.53;5064565;27;45999;-48
2023/12/02 10:37:00;;;;;;;;;52.50;40.25;;;;;12.40;40.12;101189.28;5073215;28;45425;-47
2023/12/02 10:39:41;;;;;;;;;55.50;38.75;;;;;13.14;39.76;101194.44;5073483;28;45410;-50
2023/12/02 10:42:16;;;;;;;;;48.00;37.75;;;;;13.36;37.94;101189.69;5074170;28;45489;-53
2023/12/02 10:44:44;;;;;;;;;48.50;38.50;;;;;12.64;38.47;101186.94;5074182;28;46277;-52
2023/12/02 10:47:11;;;;;;;;;45.75;34.00;;;;;11.84;40.08;101195.50;5073089;28;45376;-51
2023/12/02 10:49:38;;;;;;;;;52.25;38.50;;;;;11.74;40.04;101198.16;5073909;28;45833;-49
2023/12/02 10:52:06;;;;;;;;;47.50;36.75;;;;;12.02;39.56;101198.28;5074049;28;45415;-44
2023/12/02 10:54:34;;;;;;;;;51.00;37.50;;;;;11.98;39.64;101190.56;5072913;28;46336;-47
2023/12/02 10:57:06;;;;;;;;;45.50;38.00;;;;;11.55;40.50;101198.22;5073541;28;45485;-49
2023/12/02 10:59:34;;;;;;;;;59.75;40.50;;;;;11.17;40.52;101200.75;5074084;28;45537;-48
2023/12/02 11:02:25;;;;;;;;;48.25;39.75;;;;;11.04;41.70;101202.84;5073889;28;45564;-49
2023/12/02 11:05:03;;;;;;;;;45.75;37.75;;;;;10.93;40.98;101197.63;5073088;28;45513;-46
2023/12/02 11:07:32;;;;;;;;;48.25;36.75;;;;;10.93;41.49;101203.78;5073661;28;45231;-48
2023/12/02 11:10:03;;;;;;;;;54.50;39.25;;;;;10.84;41.53;101195.78;5073890;28;45490;-47
2023/12/02 11:12:55;;;;;;;;;56.25;39.75;;;;;10.78;41.90;101197.16;5073890;27;45421;-47
2023/12/02 11:15:24;;;;;;;;;45.50;39.00;;;;;10.69;42.51;101198.00;5072953;27;46862;-46
2023/12/02 11:18:04;;;;;;;;;49.00;39.00;;;;;10.59;42.40;101205.94;5073314;28;45917;-46